Time;durP1;ratioP1;P1;durP2;ratioP2;P2;SDS_P1;SDS_P2;PMS_P1;PMS_P2;Temp;Humidity;BMP_temperature;BMP_pressure;BME280_temperature;BME280_humidity;BME280_pressure;Samples;Min_cycle;Max_cycle;Signal;HPM_P1;HPM_P2
2022/08/01 00:01:16;;;;;;;3.60;3.00;;;;;;;18.45;99.16;100451.33;108906;1231;60463;-72
2022/08/01 00:03:44;;;;;;;5.30;3.50;;;;;;;18.46;99.47;100455.84;108925;1231;59058;-72
2022/08/01 00:06:11;;;;;;;4.80;2.60;;;;;;;18.49;99.86;100456.27;108895;1231;64152;-72
2022/08/01 00:08:39;;;;;;;5.70;3.00;;;;;;;18.51;99.72;100460.46;108705;1233;70570;-70
2022/08/01 00:11:08;;;;;;;6.20;3.30;;;;;;;18.58;99.56;100461.99;108899;1231;60842;-70
2022/08/01 00:13:35;;;;;;;6.30;3.20;;;;;;;18.59;99.87;100462.58;108849;1231;73528;-70
2022/08/01 00:16:03;;;;;;;4.50;2.80;;;;;;;18.58;99.44;100458.02;108623;1234;57484;-69
2022/08/01 00:18:31;;;;;;;6.70;2.30;;;;;;;18.56;98.72;100455.65;108895;1231;58955;-71
2022/08/01 00:20:58;;;;;;;4.40;2.70;;;;;;;18.54;98.37;100454.20;108848;1232;62444;-70
2022/08/01 00:23:26;;;;;;;4.20;2.60;;;;;;;18.51;98.48;100449.64;108881;1231;72853;-70
2022/08/01 00:25:53;;;;;;;5.80;2.90;;;;;;;18.51;98.83;100449.81;108878;1231;60417;-71
2022/08/01 00:28:21;;;;;;;3.50;2.50;;;;;;;18.53;98.65;100445.73;108887;1231;74430;-71
2022/08/01 00:30:48;;;;;;;4.70;2.40;;;;;;;18.53;98.27;100441.10;108947;1232;59446;-71
2022/08/01 00:33:16;;;;;;;3.70;2.90;;;;;;;18.52;98.10;100438.96;108975;1231;60520;-70
2022/08/01 00:35:43;;;;;;;3.60;2.50;;;;;;;18.53;98.29;100440.04;109082;1231;62499;-72
2022/08/01 00:38:11;;;;;;;3.80;3.00;;;;;;;18.55;99.04;100435.69;109086;1232;70317;-71
2022/08/01 00:40:38;;;;;;;3.20;2.50;;;;;;;18.58;99.59;100433.70;109079;1232;59040;-70
2022/08/01 00:43:06;;;;;;;4.30;2.90;;;;;;;18.57;98.81;100431.55;108962;1231;71107;-71
2022/08/01 00:45:33;;;;;;;4.50;2.50;;;;;;;18.56;98.27;100426.70;108662;1232;63741;-69
2022/08/01 00:48:01;;;;;;;5.60;2.70;;;;;;;18.59;98.11;100423.40;108699;1234;58374;-69
2022/08/01 00:50:29;;;;;;;4.50;2.60;;;;;;;18.60;98.42;100422.56;108930;1232;72077;-71
2022/08/01 00:52:58;;;;;;;3.80;2.60;;;;;;;18.59;98.31;100418.67;109055;1232;61336;-69
2022/08/01 00:55:31;;;;;;;3.90;2.70;;;;;;;18.57;98.61;100412.63;108871;1232;70075;-70
2022/08/01 00:57:58;;;;;;;7.10;3.00;;;;;;;18.57;98.88;100410.91;109072;1231;63513;-69
2022/08/01 01:00:35;;;;;;;4.50;2.70;;;;;;;18.59;99.10;100404.13;108786;1234;58942;-71
2022/08/01 01:03:24;;;;;;;4.30;2.60;;;;;;;18.64;98.68;100399.88;108813;1231;58734;-70
2022/08/01 01:06:27;;;;;;;14.00;9.20;;;;;;;18.66;98.18;100391.42;111091;1231;73533;-72
2022/08/01 01:09:29;;;;;;;4.90;2.80;;;;;;;18.70;98.33;100391.19;108850;1231;62313;-71
2022/08/01 01:12:18;;;;;;;5.50;2.90;;;;;;;18.72;98.49;100391.41;108983;1234;70945;-69
2022/08/01 01:15:14;;;;;;;4.40;2.50;;;;;;;18.74;98.47;100385.19;108905;1232;74303;-71
2022/08/01 01:18:01;;;;;;;5.90;3.00;;;;;;;18.71;98.76;100382.16;108639;1234;63715;-71
2022/08/01 01:20:45;;;;;;;3.90;2.60;;;;;;;18.65;98.85;100378.75;108895;1231;59096;-70
2022/08/01 01:23:34;;;;;;;4.40;2.80;;;;;;;18.59;99.15;100376.48;108770;1234;62532;-72
2022/08/01 01:26:25;;;;;;;3.70;3.00;;;;;;;18.45;99.95;100380.11;108996;1231;71634;-72
2022/08/01 01:29:16;;;;;;;4.70;3.40;;;;;;;18.41;100.00;100383.58;109055;1231;70941;-71
2022/08/01 01:31:55;;;;;;;6.40;3.20;;;;;;;18.45;99.78;100389.52;109289;1231;63620;-71
2022/08/01 01:34:24;;;;;;;5.50;3.70;;;;;;;18.53;98.85;100392.30;109223;1232;62202;-73
2022/08/01 01:36:55;;;;;;;5.30;3.30;;;;;;;18.45;98.99;100389.98;109080;1231;61663;-72
2022/08/01 01:39:26;;;;;;;3.80;2.80;;;;;;;18.40;99.59;100396.38;109171;1231;62559;-71
2022/08/01 01:41:56;;;;;;;4.00;2.70;;;;;;;18.45;99.55;100404.16;109026;1234;61188;-69
2022/08/01 01:44:25;;;;;;;4.30;3.10;;;;;;;18.54;98.20;100413.40;108994;1233;59090;-70
2022/08/01 01:46:54;;;;;;;7.80;3.20;;;;;;;18.45;97.70;100417.02;108905;1234;62327;-70
2022/08/01 01:49:27;;;;;;;4.90;3.10;;;;;;;18.33;98.29;100420.80;108768;1235;59190;-69
2022/08/01 01:51:58;;;;;;;4.40;3.30;;;;;;;18.31;98.67;100420.28;108896;1234;60431;-69
2022/08/01 01:54:39;;;;;;;3.80;2.70;;;;;;;18.33;98.20;100420.84;109117;1231;63516;-70
2022/08/01 01:57:09;;;;;;;3.60;2.50;;;;;;;18.33;97.82;100418.54;108912;1234;63096;-69
2022/08/01 01:59:39;;;;;;;5.90;2.90;;;;;;;18.30;97.49;100414.38;109241;1232;59805;-71
2022/08/01 02:02:09;;;;;;;8.00;3.60;;;;;;;18.25;97.49;100410.89;109175;1232;72314;-71
2022/08/01 02:04:44;;;;;;;3.50;2.80;;;;;;;18.22;98.02;100412.68;109118;1232;63528;-73
2022/08/01 02:07:19;;;;;;;4.30;3.30;;;;;;;18.19;97.66;100409.44;109162;1231;61802;-72
2022/08/01 02:09:48;;;;;;;5.30;3.50;;;;;;;18.18;98.16;100411.03;109097;1234;62795;-71
2022/08/01 02:12:17;;;;;;;9.40;3.50;;;;;;;18.17;98.75;100405.98;109234;1231;61488;-71
2022/08/01 02:14:46;;;;;;;4.20;3.00;;;;;;;18.19;98.48;100406.06;109170;1234;70525;-74
2022/08/01 02:17:18;;;;;;;4.40;3.50;;;;;;;18.16;98.96;100403.72;109064;1234;64423;-72
2022/08/01 02:19:46;;;;;;;4.50;3.30;;;;;;;18.16;99.82;100406.97;109055;1231;62115;-70
2022/08/01 02:22:32;;;;;;;5.70;3.50;;;;;;;18.20;99.85;100407.56;108887;1233;60815;-71
2022/08/01 02:25:07;;;;;;;5.80;3.30;;;;;;;18.21;99.12;100409.54;108826;1234;74487;-71
2022/08/01 02:27:50;;;;;;;5.90;3.60;;;;;;;18.20;98.51;100408.93;109150;1231;72634;-72
2022/08/01 02:30:19;;;;;;;6.40;4.30;;;;;;;18.19;99.62;100412.20;109077;1231;68392;-71
2022/08/01 02:33:20;;;;;;;8.00;4.60;;;;;;;18.21;99.04;100408.91;108977;1234;63208;-72
2022/08/01 02:35:56;;;;;;;5.90;4.10;;;;;;;18.20;98.39;100411.05;109311;1232;59036;-71
2022/08/01 02:38:46;;;;;;;5.50;4.40;;;;;;;18.19;98.97;100413.27;109271;1232;58929;-71
2022/08/01 02:41:22;;;;;;;7.40;4.40;;;;;;;18.22;98.66;100416.38;109194;1231;62845;-74
2022/08/01 02:43:58;;;;;;;6.10;4.70;;;;;;;18.20;98.13;100416.05;109033;1234;61560;-73
2022/08/01 02:47:02;;;;;;;7.60;4.50;;;;;;;18.17;99.48;100418.61;108959;1232;70553;-72
2022/08/01 02:49:37;;;;;;;8.20;4.40;;;;;;;18.17;99.95;100420.89;109037;1231;63036;-71
2022/08/01 02:52:12;;;;;;;6.80;4.50;;;;;;;18.19;99.87;100418.92;109093;1231;62932;-69
2022/08/01 02:54:41;;;;;;;7.60;4.60;;;;;;;18.22;99.78;100419.39;109162;1231;61646;-72
2022/08/01 02:57:10;;;;;;;6.00;4.70;;;;;;;18.25;99.88;100416.83;108976;1234;62662;-70
2022/08/01 02:59:42;;;;;;;6.90;4.90;;;;;;;18.31;99.54;100416.45;108981;1232;72208;-72
2022/08/01 03:02:12;;;;;;;6.70;4.90;;;;;;;18.33;99.46;100416.29;108853;1234;60025;-70
2022/08/01 03:04:42;;;;;;;6.10;5.20;;;;;;;18.33;99.71;100415.69;109083;1231;73983;-70
2022/08/01 03:07:12;;;;;;;9.40;5.60;;;;;;;18.37;99.57;100416.67;109124;1232;63265;-69
2022/08/01 03:09:44;;;;;;;6.90;6.00;;;;;;;18.42;98.90;100416.98;108853;1233;61232;-68
2022/08/01 03:12:17;;;;;;;9.00;5.70;;;;;;;18.42;98.81;100413.79;108858;1232;74380;-71
2022/08/01 03:14:46;;;;;;;;;;;;;;;18.42;98.80;100419.96;109018;1232;72483;-71
2022/08/01 03:17:16;;;;;;;8.10;6.20;;;;;;;18.42;98.04;100416.75;108884;1232;70438;-71
2022/08/01 03:19:45;;;;;;;6.90;5.40;;;;;;;18.41;97.87;100417.92;108539;1233;63689;-71
2022/08/01 03:22:14;;;;;;;8.80;6.20;;;;;;;18.41;98.71;100420.36;108535;1234;62498;-70
2022/08/01 03:24:45;;;;;;;6.70;5.60;;;;;;;18.44;98.57;100419.77;108978;1231;60787;-70
2022/08/01 03:27:21;;;;;;;8.60;6.40;;;;;;;18.49;98.95;100418.50;108550;1236;62660;-71
2022/08/01 03:29:50;;;;;;;6.80;5.80;;;;;;;18.61;98.24;100418.89;108921;1231;70354;-71
2022/08/01 03:32:19;;;;;;;7.70;5.90;;;;;;;18.71;97.37;100424.15;109005;1233;70043;-70
2022/08/01 03:34:47;;;;;;;8.00;6.30;;;;;;;18.78;97.12;100427.62;108667;1233;74054;-71
2022/08/01 03:37:36;;;;;;;9.00;6.40;;;;;;;18.82;97.09;100424.58;108620;1233;58860;-71
2022/08/01 03:40:14;;;;;;;7.60;6.40;;;;;;;18.87;97.15;100428.46;108955;1233;57837;-72
2022/08/01 03:42:48;;;;;;;8.70;7.60;;;;;;;18.89;97.00;100429.42;109035;1233;73270;-73
2022/08/01 03:45:22;;;;;;;9.50;6.60;;;;;;;18.95;96.83;100429.42;109077;1234;63711;-71
2022/08/01 03:47:59;;;;;;;9.60;6.40;;;;;;;19.07;96.35;100429.64;109098;1234;70364;-72
2022/08/01 03:50:30;;;;;;;8.20;6.50;;;;;;;19.18;95.62;100431.45;109200;1234;63561;-72
2022/08/01 03:53:01;;;;;;;7.30;6.20;;;;;;;19.28;95.63;100432.05;109096;1234;61921;-69
2022/08/01 03:55:31;;;;;;;6.50;5.70;;;;;;;19.33;95.53;100430.91;108848;1232;61709;-70
2022/08/01 03:58:00;;;;;;;7.90;6.30;;;;;;;19.37;95.21;100433.35;109048;1233;63788;-69
2022/08/01 04:00:28;;;;;;;7.00;6.20;;;;;;;19.32;95.29;100435.11;108982;1234;61760;-71
2022/08/01 04:02:56;;;;;;;9.70;6.90;;;;;;;19.34;95.20;100438.59;108730;1233;70589;-69
2022/08/01 04:05:24;;;;;;;9.00;6.30;;;;;;;19.31;95.73;100435.20;108960;1233;74035;-70
2022/08/01 04:07:55;;;;;;;8.90;6.60;;;;;;;19.39;94.77;100436.15;109065;1234;58964;-71
2022/08/01 04:10:24;;;;;;;11.10;7.00;;;;;;;19.34;94.73;100437.74;109068;1231;60295;-72
2022/08/01 04:12:52;;;;;;;9.60;7.50;;;;;;;19.18;96.78;100439.21;108929;1234;63418;-71
2022/08/01 04:15:23;;;;;;;9.00;7.00;;;;;;;19.11;97.52;100428.33;109121;1232;61888;-71
2022/08/01 04:17:51;;;;;;;9.70;7.20;;;;;;;19.23;97.36;100434.22;109112;1233;69657;-71
2022/08/01 04:20:18;;;;;;;12.00;7.90;;;;;;;19.39;96.24;100432.20;108850;1234;63925;-71
2022/08/01 04:22:46;;;;;;;9.90;7.30;;;;;;;19.45;96.07;100432.45;108846;1234;63406;-70
2022/08/01 04:25:26;;;;;;;13.60;11.70;;;;;;;19.56;95.83;100432.39;108904;1235;60823;-72
2022/08/01 04:27:56;;;;;;;10.50;8.10;;;;;;;19.71;95.01;100430.38;109069;1234;63731;-72
2022/08/01 04:30:30;;;;;;;11.90;8.00;;;;;;;19.75;95.05;100429.45;109181;1232;61612;-72
2022/08/01 04:33:01;;;;;;;11.00;9.00;;;;;;;19.83;94.76;100427.67;109144;1234;59213;-70
2022/08/01 04:35:30;;;;;;;9.70;8.20;;;;;;;19.91;94.18;100423.27;109323;1233;62310;-72
2022/08/01 04:38:27;;;;;;;11.80;9.40;;;;;;;20.00;93.69;100420.33;109201;1232;58916;-71
2022/08/01 04:40:57;;;;;;;11.60;9.10;;;;;;;20.09;93.25;100424.34;109120;1232;59103;-72
2022/08/01 04:43:25;;;;;;;11.80;7.50;;;;;;;20.20;92.82;100430.06;108915;1234;62854;-71
2022/08/01 04:45:54;;;;;;;12.60;7.30;;;;;;;20.38;92.34;100431.77;109171;1231;71665;-71
2022/08/01 04:48:24;;;;;;;12.20;8.20;;;;;;;20.46;91.22;100432.33;108906;1234;60356;-69
2022/08/01 04:50:51;;;;;;;11.60;8.60;;;;;;;20.38;91.57;100427.85;108893;1233;63070;-71
2022/08/01 04:53:23;;;;;;;11.00;8.30;;;;;;;20.37;92.13;100430.20;109072;1232;58240;-70
2022/08/01 04:55:50;;;;;;;11.30;9.20;;;;;;;20.45;90.58;100427.23;109093;1234;59156;-69
2022/08/01 04:58:18;;;;;;;10.30;9.10;;;;;;;20.53;89.90;100425.02;109160;1231;72075;-73
2022/08/01 05:00:46;;;;;;;8.70;7.90;;;;;;;20.59;89.16;100425.63;109212;1234;72748;-71
2022/08/01 05:03:15;;;;;;;9.30;8.20;;;;;;;20.65;88.68;100424.48;109135;1234;61410;-72
2022/08/01 05:05:43;;;;;;;9.90;8.30;;;;;;;20.75;87.65;100429.59;109170;1234;75156;-68
2022/08/01 05:08:10;;;;;;;8.70;7.80;;;;;;;20.83;87.02;100435.13;108645;1232;674462;-70
2022/08/01 05:10:38;;;;;;;8.70;7.30;;;;;;;20.86;86.34;100432.48;108849;1234;60581;-70
2022/08/01 05:13:06;;;;;;;10.90;7.60;;;;;;;20.91;86.34;100435.14;109026;1234;63387;-72
2022/08/01 05:15:38;;;;;;;8.00;7.00;;;;;;;20.99;85.90;100435.58;108857;1232;71696;-69
2022/08/01 05:18:06;;;;;;;8.70;7.00;;;;;;;21.02;84.93;100435.54;109077;1234;60402;-69
2022/08/01 05:20:36;;;;;;;10.00;8.00;;;;;;;21.03;84.69;100438.58;108847;1233;63268;-70
2022/08/01 05:23:05;;;;;;;8.90;7.70;;;;;;;21.02;84.42;100432.05;109125;1232;61210;-71
2022/08/01 05:25:33;;;;;;;9.30;7.50;;;;;;;21.03;84.69;100433.66;109067;1232;57447;-69
2022/08/01 05:28:20;;;;;;;8.50;7.60;;;;;;;21.04;84.52;100431.19;109149;1234;62096;-71
2022/08/01 05:30:48;;;;;;;8.80;7.90;;;;;;;21.08;84.63;100431.23;108877;1234;71720;-71
2022/08/01 05:33:15;;;;;;;8.20;7.00;;;;;;;21.07;83.94;100427.66;109071;1232;60263;-69
2022/08/01 05:35:42;;;;;;;8.60;7.70;;;;;;;21.03;84.05;100428.92;109111;1232;73708;-70
2022/08/01 05:38:16;;;;;;;8.70;7.70;;;;;;;20.89;84.34;100433.28;109161;1232;63295;-70
2022/08/01 05:40:43;;;;;;;7.70;6.90;;;;;;;20.85;84.88;100435.61;110530;1232;58931;-77
2022/08/01 05:43:10;;;;;;;8.70;7.20;;;;;;;20.74;85.50;100438.80;109943;1233;72755;-71
2022/08/01 05:45:38;;;;;;;9.50;7.70;;;;;;;20.89;85.22;100437.50;109151;1232;61137;-73
2022/08/01 05:48:06;;;;;;;7.70;6.90;;;;;;;20.96;84.39;100435.20;109198;1232;69024;-70
2022/08/01 05:50:33;;;;;;;7.40;6.70;;;;;;;21.02;83.55;100435.38;109132;1233;63959;-71
2022/08/01 05:53:01;;;;;;;8.00;5.80;;;;;;;21.07;82.62;100442.78;108905;1233;59116;-72
2022/08/01 05:55:28;;;;;;;6.00;5.40;;;;;;;21.13;82.46;100439.71;109068;1232;60432;-73
2022/08/01 05:57:56;;;;;;;6.30;5.60;;;;;;;21.12;81.86;100437.30;108794;1232;72672;-71
2022/08/01 06:00:23;;;;;;;5.30;4.70;;;;;;;21.13;81.51;100440.16;109144;1232;61248;-71
2022/08/01 06:02:50;;;;;;;6.10;4.90;;;;;;;21.22;80.80;100435.81;109191;1231;70266;-71
2022/08/01 06:05:18;;;;;;;5.50;4.80;;;;;;;21.26;80.39;100435.95;108896;1234;62708;-72
2022/08/01 06:07:45;;;;;;;5.60;4.90;;;;;;;21.14;80.55;100435.14;108975;1234;62383;-72
2022/08/01 06:10:13;;;;;;;5.40;4.90;;;;;;;21.21;81.03;100436.65;109171;1231;60012;-72
2022/08/01 06:12:40;;;;;;;6.60;4.50;;;;;;;21.22;80.66;100440.76;108896;1234;74513;-74
2022/08/01 06:15:09;;;;;;;6.00;3.50;;;;;;;21.18;81.02;100440.55;109088;1232;62213;-72
2022/08/01 06:17:36;;;;;;;4.30;3.90;;;;;;;21.38;80.15;100441.73;109140;1233;60318;-72
2022/08/01 06:20:06;;;;;;;6.30;4.30;;;;;;;21.53;79.71;100435.56;108860;1232;73805;-71
2022/08/01 06:22:33;;;;;;;4.50;3.80;;;;;;;21.78;79.25;100433.89;109113;1232;59385;-70
2022/08/01 06:25:01;;;;;;;4.70;3.90;;;;;;;21.99;78.04;100436.58;109142;1232;61611;-72
2022/08/01 06:27:28;;;;;;;4.50;3.80;;;;;;;21.97;77.12;100437.73;109034;1234;64289;-72
2022/08/01 06:29:56;;;;;;;6.10;3.60;;;;;;;22.00;76.76;100437.85;108732;1234;72537;-71
2022/08/01 06:32:24;;;;;;;4.40;3.70;;;;;;;22.11;76.66;100438.62;109086;1233;59607;-72
2022/08/01 06:34:55;;;;;;;6.50;4.10;;;;;;;22.09;76.10;100441.02;109156;1232;63219;-72
2022/08/01 06:37:23;;;;;;;4.60;3.80;;;;;;;22.01;76.88;100450.54;108881;1234;59111;-72
2022/08/01 06:39:51;;;;;;;5.40;3.70;;;;;;;21.92;76.25;100450.39;108908;1234;59342;-73
2022/08/01 06:42:18;;;;;;;5.80;3.90;;;;;;;21.80;76.10;100451.13;109059;1232;62562;-74
2022/08/01 06:44:46;;;;;;;4.70;3.90;;;;;;;21.64;76.97;100453.34;109001;1232;72606;-75
2022/08/01 06:47:13;;;;;;;4.50;3.90;;;;;;;21.49;78.09;100456.27;109102;1234;59446;-71
2022/08/01 06:49:40;;;;;;;6.40;4.10;;;;;;;21.45;78.14;100457.39;109037;1231;74181;-72
2022/08/01 06:52:08;;;;;;;5.00;4.40;;;;;;;21.47;78.49;100459.46;109063;1234;58937;-72
2022/08/01 06:54:36;;;;;;;6.70;4.30;;;;;;;21.49;78.39;100462.59;108851;1235;57467;-72
2022/08/01 06:57:06;;;;;;;5.80;4.40;;;;;;;21.44;78.78;100460.27;109076;1232;73905;-70
2022/08/01 06:59:34;;;;;;;5.50;4.60;;;;;;;21.40;79.04;100460.85;109102;1233;72261;-71
2022/08/01 07:02:01;;;;;;;10.90;4.50;;;;;;;21.56;78.84;100461.93;108919;1234;59672;-73
2022/08/01 07:04:30;;;;;;;4.80;4.40;;;;;;;21.72;78.99;100456.74;109146;1234;62403;-71
2022/08/01 07:06:58;;;;;;;5.30;4.40;;;;;;;21.82;78.73;100453.90;109200;1234;59031;-72
2022/08/01 07:09:26;;;;;;;4.70;4.20;;;;;;;21.97;76.98;100454.02;109080;1232;58912;-71
2022/08/01 07:11:55;;;;;;;5.30;4.40;;;;;;;22.08;75.49;100457.94;109200;1232;72852;-74
2022/08/01 07:14:24;;;;;;;5.00;4.50;;;;;;;22.17;75.30;100457.71;109248;1232;72538;-71
2022/08/01 07:16:51;;;;;;;4.60;4.10;;;;;;;21.90;76.76;100460.55;108802;1235;59636;-71
2022/08/01 07:19:19;;;;;;;5.10;4.30;;;;;;;22.00;76.65;100461.29;109051;1233;63163;-71
2022/08/01 07:21:46;;;;;;;5.10;4.00;;;;;;;22.06;76.38;100463.23;108958;1234;61174;-72
2022/08/01 07:24:17;;;;;;;4.50;4.10;;;;;;;22.14;75.67;100460.45;109169;1234;59018;-70
2022/08/01 07:26:48;;;;;;;5.80;4.30;;;;;;;22.31;74.73;100452.77;109121;1234;62885;-74
2022/08/01 07:29:26;;;;;;;7.10;3.70;;;;;;;22.30;74.28;100452.43;109060;1234;69993;-72
2022/08/01 07:31:56;;;;;;;4.70;4.00;;;;;;;22.28;74.30;100452.66;109200;1234;59309;-75
2022/08/01 07:34:24;;;;;;;6.50;3.90;;;;;;;22.29;74.05;100453.73;109178;1233;63228;-73
2022/08/01 07:36:52;;;;;;;12.00;3.70;;;;;;;22.22;74.19;100457.49;108926;1234;58985;-72
2022/08/01 07:39:20;;;;;;;7.00;4.20;;;;;;;22.19;74.07;100455.51;109019;1234;60300;-72
2022/08/01 07:41:47;;;;;;;5.70;3.80;;;;;;;22.10;74.18;100455.91;109277;1234;64136;-74
2022/08/01 07:44:36;;;;;;;6.20;4.40;;;;;;;21.96;74.86;100452.14;109389;1234;62899;-72
2022/08/01 07:47:05;;;;;;;5.90;3.90;;;;;;;21.88;75.20;100443.42;109031;1234;70468;-73
2022/08/01 07:49:33;;;;;;;5.20;4.10;;;;;;;22.02;75.07;100446.86;108977;1234;63108;-72
2022/08/01 07:52:08;;;;;;;7.80;3.80;;;;;;;22.13;74.10;100447.19;108850;1234;60477;-72
2022/08/01 07:54:36;;;;;;;3.90;3.30;;;;;;;22.23;72.92;100439.37;108901;1233;61628;-72
2022/08/01 07:57:04;;;;;;;3.90;3.10;;;;;;;22.16;72.71;100440.10;108865;1234;63983;-72
2022/08/01 07:59:32;;;;;;;5.30;3.50;;;;;;;22.14;72.20;100439.99;109160;1232;72132;-73
2022/08/01 08:02:00;;;;;;;12.20;4.60;;;;;;;22.27;72.57;100436.16;108527;1236;71393;-72
2022/08/01 08:04:28;;;;;;;8.80;4.20;;;;;;;22.36;72.37;100437.99;108872;1234;74804;-72
2022/08/01 08:06:55;;;;;;;5.50;3.80;;;;;;;22.42;72.26;100443.85;108573;1233;58929;-73
2022/08/01 08:09:23;;;;;;;3.60;3.30;;;;;;;22.37;71.33;100449.38;108831;1235;58872;-72
2022/08/01 08:11:51;;;;;;;5.20;3.40;;;;;;;22.30;71.98;100448.67;108872;1234;73914;-73
2022/08/01 08:14:19;;;;;;;3.60;2.90;;;;;;;22.38;72.42;100448.81;109043;1233;62065;-75
2022/08/01 08:16:46;;;;;;;4.60;2.80;;;;;;;22.63;71.52;100453.56;108945;1234;59876;-72
2022/08/01 08:19:14;;;;;;;4.70;3.00;;;;;;;22.85;69.72;100449.55;108860;1234;74143;-72
2022/08/01 08:21:42;;;;;;;3.50;2.90;;;;;;;23.18;69.43;100445.05;108676;1234;58988;-72
2022/08/01 08:24:19;;;;;;;5.70;3.30;;;;;;;23.34;67.60;100449.66;108896;1234;58898;-73
2022/08/01 08:26:55;;;;;;;;;;;;;;;23.22;66.94;100453.18;108728;1235;64272;-74
2022/08/01 08:29:24;;;;;;;4.10;3.60;;;;;;;23.13;67.78;100451.63;109062;1232;73130;-74
2022/08/01 08:31:55;;;;;;;4.10;3.00;;;;;;;23.13;68.31;100454.41;108867;1234;70486;-72
2022/08/01 08:34:25;;;;;;;4.40;4.00;;;;;;;22.94;69.55;100458.07;108873;1234;74380;-73
2022/08/01 08:36:55;;;;;;;5.30;3.50;;;;;;;22.84;69.59;100458.65;109057;1232;59015;-75
2022/08/01 08:39:23;;;;;;;5.70;3.90;;;;;;;22.94;68.84;100453.96;109165;1234;60433;-73
2022/08/01 08:41:50;;;;;;;4.30;3.50;;;;;;;23.09;68.36;100457.63;109039;1233;73998;-72
2022/08/01 08:44:22;;;;;;;4.40;4.00;;;;;;;23.05;67.87;100459.80;108796;1234;61327;-70
2022/08/01 08:46:52;;;;;;;6.30;4.50;;;;;;;23.06;68.01;100453.11;108738;1234;70832;-72
2022/08/01 08:49:26;;;;;;;5.30;3.50;;;;;;;23.25;67.74;100444.66;109163;1234;63935;-73
2022/08/01 08:52:04;;;;;;;4.00;3.20;;;;;;;23.52;66.16;100450.98;109094;1233;59084;-72
2022/08/01 08:54:33;;;;;;;5.20;3.40;;;;;;;23.51;66.45;100449.50;109147;1233;57851;-72
2022/08/01 08:57:01;;;;;;;4.00;3.60;;;;;;;23.62;66.10;100453.62;108952;1233;62865;-72
2022/08/01 08:59:29;;;;;;;4.30;3.00;;;;;;;23.70;65.25;100450.63;108991;1234;72621;-72
2022/08/01 09:01:58;;;;;;;5.00;2.80;;;;;;;23.74;64.13;100447.56;108921;1234;71465;-72
2022/08/01 09:04:26;;;;;;;5.20;3.70;;;;;;;23.63;65.44;100444.41;109149;1231;73861;-72
2022/08/01 09:06:54;;;;;;;4.00;3.60;;;;;;;23.77;64.30;100450.44;108877;1234;60807;-74
2022/08/01 09:09:23;;;;;;;3.70;3.20;;;;;;;23.85;63.75;100447.98;109181;1234;60630;-71
2022/08/01 09:11:51;;;;;;;4.40;3.70;;;;;;;23.60;63.54;100443.70;109147;1234;73404;-73
2022/08/01 09:14:34;;;;;;;3.90;3.10;;;;;;;23.60;64.15;100443.42;108698;1236;62106;-71
2022/08/01 09:17:07;;;;;;;4.60;3.00;;;;;;;23.58;64.04;100452.11;108871;1233;60097;-73
2022/08/01 09:19:40;;;;;;;4.70;3.50;;;;;;;23.63;64.21;100448.71;108858;1235;73916;-71
2022/08/01 09:22:18;;;;;;;5.00;3.20;;;;;;;23.82;63.43;100445.64;108907;1234;58977;-72
2022/08/01 09:24:58;;;;;;;3.80;2.70;;;;;;;23.79;62.68;100443.38;108867;1233;59073;-73
2022/08/01 09:27:26;;;;;;;2.50;2.30;;;;;;;23.95;63.16;100445.69;108968;1233;62069;-73
2022/08/01 09:30:06;;;;;;;5.20;2.40;;;;;;;24.06;62.87;100449.06;108682;1236;60854;-72
2022/08/01 09:32:34;;;;;;;3.50;2.30;;;;;;;24.03;62.58;100453.70;108970;1233;59107;-73
2022/08/01 09:35:25;;;;;;;3.90;2.30;;;;;;;23.88;62.22;100461.07;108803;1236;63345;-72
2022/08/01 09:38:21;;;;;;;4.20;2.40;;;;;;;23.64;62.98;100470.29;109019;1234;59131;-73
2022/08/01 09:40:57;;;;;;;2.60;2.40;;;;;;;23.56;63.66;100473.26;108819;1236;58722;-72
2022/08/01 09:43:28;;;;;;;2.80;2.50;;;;;;;23.46;63.79;100474.95;109079;1233;62126;-72
2022/08/01 09:45:59;;;;;;;2.30;2.00;;;;;;;23.53;63.85;100478.17;108923;1234;73025;-73
2022/08/01 09:48:27;;;;;;;3.30;2.40;;;;;;;23.61;63.32;100479.89;108934;1234;60298;-72
2022/08/01 09:51:00;;;;;;;2.10;1.90;;;;;;;23.78;63.14;100476.03;108798;1234;64217;-73
2022/08/01 09:53:43;;;;;;;2.10;1.60;;;;;;;23.93;62.73;100475.89;109078;1234;59000;-72
2022/08/01 09:56:20;;;;;;;2.20;1.70;;;;;;;24.13;61.25;100478.36;109206;1232;58719;-72
2022/08/01 09:58:57;;;;;;;2.00;1.50;;;;;;;23.93;62.56;100479.96;108960;1234;74443;-73
2022/08/01 10:01:46;;;;;;;1.80;1.20;;;;;;;23.76;63.56;100484.23;109128;1234;71793;-73
2022/08/01 10:04:22;;;;;;;1.80;1.10;;;;;;;23.80;62.90;100487.54;108962;1234;70439;-72
2022/08/01 10:06:53;;;;;;;1.80;1.10;;;;;;;23.89;61.48;100486.18;109011;1234;64032;-74
2022/08/01 10:09:36;;;;;;;3.70;1.40;;;;;;;23.86;62.16;100482.52;109159;1234;60421;-72
2022/08/01 10:12:10;;;;;;;1.90;1.30;;;;;;;23.65;63.63;100491.60;109156;1234;60393;-74
2022/08/01 10:14:54;;;;;;;1.90;1.40;;;;;;;23.75;62.82;100491.61;108930;1234;74462;-72
2022/08/01 10:17:25;;;;;;;2.30;1.50;;;;;;;23.65;63.33;100486.75;109201;1233;72707;-72
2022/08/01 10:20:13;;;;;;;1.90;1.70;;;;;;;23.71;63.10;100487.80;109221;1232;61202;-73
2022/08/01 10:23:03;;;;;;;2.10;1.70;;;;;;;23.69;62.66;100492.68;109204;1234;74032;-71
2022/08/01 10:25:43;;;;;;;2.30;1.90;;;;;;;23.51;63.26;100492.94;108977;1234;58849;-72
2022/08/01 10:28:17;;;;;;;2.50;1.80;;;;;;;23.29;64.33;100489.38;108999;1234;61604;-71
2022/08/01 10:30:51;;;;;;;2.10;1.50;;;;;;;23.09;65.51;100490.38;109090;1232;74369;-72
2022/08/01 10:33:23;;;;;;;1.70;1.40;;;;;;;23.34;64.11;100492.98;109013;1234;71900;-72
2022/08/01 10:36:11;;;;;;;2.40;1.10;;;;;;;23.59;63.54;100492.66;109218;1232;70642;-71
2022/08/01 10:38:40;;;;;;;2.20;1.50;;;;;;;23.52;63.55;100496.13;109148;1234;73513;-72
2022/08/01 10:41:08;;;;;;;1.60;1.30;;;;;;;23.53;63.86;100500.88;108967;1235;62023;-72
2022/08/01 10:43:36;;;;;;;3.30;1.20;;;;;;;23.71;63.10;100493.29;109148;1234;58831;-73
2022/08/01 10:46:04;;;;;;;2.50;1.60;;;;;;;23.88;61.97;100488.24;108928;1235;63743;-72
2022/08/01 10:48:50;;;;;;;2.00;1.40;;;;;;;23.83;62.06;100496.43;109158;1232;72128;-74
2022/08/01 10:51:21;;;;;;;1.40;1.10;;;;;;;23.72;61.61;100488.95;109239;1234;70897;-73
2022/08/01 10:53:54;;;;;;;1.90;1.50;;;;;;;23.95;61.14;100501.09;109096;1235;63066;-72
2022/08/01 10:56:24;;;;;;;2.00;1.40;;;;;;;24.23;60.66;100500.48;108923;1234;59023;-74
2022/08/01 10:59:03;;;;;;;1.70;1.40;;;;;;;24.47;59.87;100489.23;109071;1232;59901;-72
2022/08/01 11:01:35;;;;;;;1.50;1.30;;;;;;;24.65;59.23;100487.67;108821;1235;74231;-72
2022/08/01 11:04:12;;;;;;;2.30;1.30;;;;;;;24.35;59.94;100491.77;108966;1235;72558;-72
2022/08/01 11:06:50;;;;;;;2.20;1.50;;;;;;;24.21;60.07;100492.11;109051;1232;71480;-72
2022/08/01 11:09:45;;;;;;;1.50;1.20;;;;;;;24.24;59.45;100492.83;109077;1231;73534;-70
2022/08/01 11:12:19;;;;;;;1.90;1.40;;;;;;;24.20;59.99;100487.52;109055;1232;61518;-72
2022/08/01 11:15:00;;;;;;;2.00;1.50;;;;;;;24.29;60.06;100490.24;108878;1232;61403;-71
2022/08/01 11:17:47;;;;;;;1.80;1.40;;;;;;;24.36;59.54;100488.27;109128;1232;74000;-71
2022/08/01 11:20:35;;;;;;;2.40;1.50;;;;;;;24.43;59.74;100486.14;108946;1235;63147;-72
2022/08/01 11:23:12;;;;;;;2.90;1.30;;;;;;;24.44;58.89;100490.73;108941;1232;69756;-73
2022/08/01 11:25:46;;;;;;;1.40;1.20;;;;;;;24.42;59.74;100492.22;108728;1235;63609;-75
2022/08/01 11:28:33;;;;;;;3.30;1.60;;;;;;;24.65;58.85;100491.86;108843;1234;59133;-72
2022/08/01 11:31:10;;;;;;;1.80;1.40;;;;;;;24.67;58.48;100491.33;109038;1235;59150;-72
2022/08/01 11:33:41;;;;;;;1.80;1.50;;;;;;;24.54;58.97;100498.50;109092;1231;72006;-72
2022/08/01 11:36:12;;;;;;;2.30;1.80;;;;;;;24.46;59.49;100494.73;109005;1234;61836;-73
2022/08/01 11:38:45;;;;;;;2.10;1.50;;;;;;;24.42;59.32;100493.21;109211;1232;69950;-72
2022/08/01 11:41:21;;;;;;;1.90;1.40;;;;;;;24.12;60.28;100498.02;109084;1235;64038;-72